createdAt,value
2022-09-11T00:01:26.008Z,13.27
2022-09-11T00:03:55.014Z,12.20
2022-09-11T00:06:29.821Z,10.32
2022-09-11T00:09:03.551Z,13.52
2022-09-11T00:11:33.302Z,13.13
2022-09-11T00:14:00.836Z,12.77
2022-09-11T00:16:29.197Z,12.75
2022-09-11T00:18:58.673Z,13.32
2022-09-11T00:21:26.745Z,12.45
2022-09-11T00:23:53.802Z,13.98
2022-09-11T00:26:22.105Z,12.88
2022-09-11T00:28:50.692Z,17.38
2022-09-11T00:31:19.717Z,10.98
2022-09-11T00:33:46.895Z,13.98
2022-09-11T00:36:17.148Z,14.38
2022-09-11T00:38:45.744Z,13.68
2022-09-11T00:41:15.603Z,11.75
2022-09-11T00:43:57.744Z,11.95
2022-09-11T00:46:31.398Z,12.35
2022-09-11T00:49:01.831Z,13.10
2022-09-11T00:51:33.814Z,15.80
2022-09-11T00:54:03.951Z,11.60
2022-09-11T00:56:35.938Z,12.32
2022-09-11T00:59:04.521Z,12.35
2022-09-11T01:01:31.766Z,10.93
2022-09-11T01:04:03.373Z,12.43
2022-09-11T01:06:30.363Z,11.80
2022-09-11T01:08:59.514Z,12.25
2022-09-11T01:11:53.489Z,11.75
2022-09-11T01:14:26.386Z,9.88
2022-09-11T01:17:27.654Z,9.65
2022-09-11T01:20:46.024Z,11.50
2022-09-11T01:23:41.016Z,10.77
2022-09-11T01:26:34.829Z,11.18
2022-09-11T01:29:19.967Z,10.45
2022-09-11T01:32:20.920Z,11.70
2022-09-11T01:35:19.566Z,10.60
2022-09-11T01:37:57.502Z,10.93
2022-09-11T01:40:55.902Z,10.75
2022-09-11T01:43:27.070Z,11.65
2022-09-11T01:48:31.925Z,10.68
2022-09-11T01:51:01.610Z,12.85
2022-09-11T01:53:34.759Z,13.15
2022-09-11T01:56:16.575Z,10.38
2022-09-11T01:58:48.465Z,9.98
2022-09-11T02:01:24.774Z,11.00
2022-09-11T02:04:10.682Z,10.10
2022-09-11T02:06:47.875Z,12.20
2022-09-11T02:09:22.411Z,10.45
2022-09-11T02:11:54.883Z,10.90
2022-09-11T02:14:31.318Z,11.77
2022-09-11T02:17:15.302Z,10.77
2022-09-11T02:19:43.224Z,11.98
2022-09-11T02:22:10.217Z,11.05
2022-09-11T02:24:37.802Z,10.70
2022-09-11T02:27:08.687Z,11.38
2022-09-11T02:29:36.321Z,10.07
2022-09-11T02:32:04.592Z,10.90
2022-09-11T02:34:36.884Z,11.10
2022-09-11T02:37:18.162Z,12.80
2022-09-11T02:40:12.223Z,9.32
2022-09-11T02:45:31.273Z,10.02
2022-09-11T02:48:36.240Z,12.73
2022-09-11T02:51:11.875Z,12.55
2022-09-11T02:54:02.232Z,12.07
2022-09-11T02:56:45.129Z,12.52
2022-09-11T02:59:22.087Z,12.75
2022-09-11T03:01:55.183Z,11.23
2022-09-11T03:04:25.325Z,13.23
2022-09-11T03:06:54.441Z,11.13
2022-09-11T03:09:21.819Z,11.68
2022-09-11T03:11:53.085Z,11.55
2022-09-11T03:14:20.105Z,11.20
2022-09-11T03:16:48.553Z,11.60
2022-09-11T03:19:15.610Z,11.45
2022-09-11T03:21:43.002Z,11.45
2022-09-11T03:24:10.544Z,9.25
2022-09-11T03:26:38.740Z,10.57
2022-09-11T03:29:05.924Z,11.73
2022-09-11T03:31:37.361Z,11.52
2022-09-11T03:34:06.681Z,11.60
2022-09-11T03:36:34.528Z,11.95
2022-09-11T03:39:02.348Z,12.27
2022-09-11T03:41:30.907Z,12.15
2022-09-11T03:43:57.847Z,13.15
2022-09-11T03:46:25.615Z,9.30
2022-09-11T03:48:53.349Z,11.27
2022-09-11T03:51:21.272Z,8.93
2022-09-11T03:53:48.294Z,11.35
2022-09-11T03:56:16.059Z,10.60
2022-09-11T03:58:48.202Z,11.45
2022-09-11T04:01:19.007Z,9.40
2022-09-11T04:03:46.606Z,10.20
2022-09-11T04:06:23.117Z,10.25
2022-09-11T04:08:50.052Z,9.13
2022-09-11T04:11:21.300Z,8.52
2022-09-11T04:13:52.123Z,12.73
2022-09-11T04:16:20.338Z,9.00
2022-09-11T04:18:54.025Z,9.48
2022-09-11T04:21:21.347Z,7.88
2022-09-11T04:23:56.314Z,7.93
2022-09-11T04:26:26.924Z,10.13
2022-09-11T04:29:00.203Z,9.00
2022-09-11T04:31:29.654Z,8.85
2022-09-11T04:33:58.166Z,8.57
2022-09-11T04:36:31.648Z,7.40
2022-09-11T04:39:00.141Z,8.65
2022-09-11T04:41:28.653Z,8.13
2022-09-11T04:44:04.801Z,8.93
2022-09-11T04:46:34.718Z,7.55
2022-09-11T04:49:04.603Z,7.55
2022-09-11T04:51:34.930Z,6.57
2022-09-11T04:54:02.443Z,9.05
2022-09-11T04:56:38.258Z,9.10
2022-09-11T04:59:13.334Z,8.30
2022-09-11T05:01:44.081Z,9.48
2022-09-11T05:04:12.868Z,9.13
2022-09-11T05:06:42.526Z,9.85
2022-09-11T05:09:12.639Z,8.75
2022-09-11T05:11:39.567Z,6.85
2022-09-11T05:14:06.969Z,6.53
2022-09-11T05:16:37.943Z,7.40
2022-09-11T05:19:05.529Z,7.07
2022-09-11T05:21:35.036Z,7.50
2022-09-11T05:24:03.045Z,7.38
2022-09-11T05:26:35.542Z,7.25
2022-09-11T05:29:11.686Z,6.30
2022-09-11T05:31:45.019Z,8.82
2022-09-11T05:34:14.789Z,7.50
2022-09-11T05:36:41.897Z,7.63
2022-09-11T05:39:10.628Z,7.22
2022-09-11T05:41:39.200Z,6.07
2022-09-11T05:44:06.404Z,6.65
2022-09-11T05:46:34.378Z,7.55
2022-09-11T05:49:03.438Z,6.88
2022-09-11T05:51:30.378Z,8.60
2022-09-11T05:53:58.844Z,7.65
2022-09-11T05:56:28.245Z,7.47
2022-09-11T05:58:59.228Z,6.47
2022-09-11T06:01:33.169Z,7.35
2022-09-11T06:04:15.184Z,6.35
2022-09-11T06:06:47.937Z,7.72
2022-09-11T06:09:16.060Z,7.07
2022-09-11T06:11:43.320Z,8.32
2022-09-11T06:14:13.151Z,8.20
2022-09-11T06:16:42.127Z,7.78
2022-09-11T06:19:12.365Z,6.72
2022-09-11T06:21:39.528Z,8.10
2022-09-11T06:24:18.723Z,6.80
2022-09-11T06:26:46.690Z,8.10
2022-09-11T06:29:16.115Z,7.57
2022-09-11T06:31:48.989Z,6.75
2022-09-11T06:34:16.290Z,6.20
2022-09-11T06:36:44.654Z,7.07
2022-09-11T06:39:13.840Z,7.53
2022-09-11T06:41:40.776Z,6.35
2022-09-11T06:44:12.807Z,8.43
2022-09-11T06:46:40.615Z,6.65
2022-09-11T06:49:09.735Z,7.30
2022-09-11T06:51:56.535Z,6.65
2022-09-11T06:54:23.487Z,7.07
2022-09-11T06:56:52.155Z,6.47
2022-09-11T06:59:19.391Z,9.10
2022-09-11T07:01:47.001Z,7.55
2022-09-11T07:04:14.074Z,7.13
2022-09-11T07:06:43.089Z,8.88
2022-09-11T07:09:12.361Z,8.63
2022-09-11T07:11:53.887Z,12.48
2022-09-11T07:18:01.913Z,10.25
2022-09-11T07:35:57.261Z,10.40
2022-09-11T07:38:24.239Z,12.45
2022-09-11T07:40:54.563Z,10.55
2022-09-11T07:43:24.727Z,10.30
2022-09-11T07:45:53.929Z,12.68
2022-09-11T07:48:30.263Z,13.32
2022-09-11T07:58:24.126Z,12.57
2022-09-11T08:00:26.632Z,12.25
2022-09-11T08:03:01.081Z,12.00
2022-09-11T08:11:49.086Z,12.27
2022-09-11T08:14:18.262Z,9.18
2022-09-11T08:17:26.050Z,9.18
2022-09-11T08:19:54.367Z,10.73
2022-09-11T08:22:22.635Z,9.85
2022-09-11T08:24:49.648Z,9.65
2022-09-11T08:27:18.794Z,9.55
2022-09-11T08:29:47.035Z,9.45
2022-09-11T08:32:14.412Z,12.27
2022-09-11T08:34:42.292Z,9.75
2022-09-11T08:37:09.286Z,10.20
2022-09-11T08:39:37.555Z,8.18
2022-09-11T08:42:13.080Z,8.90
2022-09-11T08:44:50.009Z,10.75
2022-09-11T08:47:35.281Z,8.35
2022-09-11T08:50:26.823Z,7.70
2022-09-11T08:52:56.576Z,6.75
2022-09-11T08:55:40.031Z,7.38
2022-09-11T08:58:31.703Z,8.30
2022-09-11T09:01:24.465Z,11.82
2022-09-11T09:04:04.607Z,13.95
2022-09-11T09:06:43.740Z,12.93
2022-09-11T09:09:42.374Z,10.65
2022-09-11T09:12:26.732Z,11.52
2022-09-11T09:15:17.041Z,12.18
2022-09-11T09:17:56.946Z,10.10
2022-09-11T09:20:31.440Z,11.52
2022-09-11T09:23:03.636Z,9.55
2022-09-11T09:25:36.623Z,10.05
2022-09-11T09:28:13.966Z,9.93
2022-09-11T09:30:53.616Z,9.68
2022-09-11T09:34:02.955Z,9.13
2022-09-11T09:36:45.963Z,13.20
2022-09-11T09:39:15.947Z,11.48
2022-09-11T09:42:05.308Z,9.77
2022-09-11T09:44:38.205Z,7.18
2022-09-11T09:47:09.770Z,7.72
2022-09-11T09:49:37.533Z,7.05
2022-09-11T09:52:30.607Z,6.75
2022-09-11T09:55:01.198Z,6.05
2022-09-11T09:57:40.025Z,5.88
2022-09-11T10:00:16.310Z,5.80
2022-09-11T10:02:54.766Z,6.28
2022-09-11T10:05:28.946Z,5.25
2022-09-11T10:08:03.905Z,6.65
2022-09-11T10:10:39.350Z,5.35
2022-09-11T10:13:25.092Z,7.25
2022-09-11T10:16:04.178Z,4.53
2022-09-11T10:18:36.124Z,5.07
2022-09-11T10:21:12.120Z,5.47
2022-09-11T10:23:56.807Z,4.45
2022-09-11T10:26:43.737Z,7.88
2022-09-11T10:29:21.246Z,4.32
2022-09-11T10:31:54.795Z,6.32
2022-09-11T10:34:25.064Z,6.55
2022-09-11T10:53:23.384Z,9.60
2022-09-11T10:56:00.790Z,14.27
2022-09-11T10:58:33.558Z,10.07
2022-09-11T11:01:01.546Z,10.57
2022-09-11T11:03:29.386Z,8.35
2022-09-11T11:06:34.473Z,7.85
2022-09-11T11:09:24.263Z,8.85
2022-09-11T11:12:10.035Z,9.00
2022-09-11T11:15:05.247Z,7.50
2022-09-11T11:17:54.232Z,7.57
2022-09-11T11:20:23.813Z,9.82
2022-09-11T11:23:28.979Z,8.55
2022-09-11T11:26:14.261Z,8.68
2022-09-11T11:29:04.178Z,6.88
2022-09-11T11:31:55.725Z,8.00
2022-09-11T11:35:01.580Z,6.23
2022-09-11T11:37:40.339Z,6.70
2022-09-11T11:40:20.995Z,7.80
2022-09-11T11:42:56.672Z,5.47
2022-09-11T11:45:43.642Z,6.32
2022-09-11T11:48:21.162Z,6.65
2022-09-11T11:50:53.337Z,5.07
2022-09-11T11:56:14.765Z,6.10
2022-09-11T11:59:02.791Z,6.70
2022-09-11T12:01:40.639Z,5.57
2022-09-11T12:04:29.428Z,5.63
2022-09-11T12:06:56.515Z,6.35
2022-09-11T12:09:23.653Z,4.90
2022-09-11T12:11:53.052Z,4.70
2022-09-11T12:14:34.356Z,4.65
2022-09-11T12:17:20.103Z,3.63
2022-09-11T12:20:41.719Z,5.18
2022-09-11T12:23:29.242Z,5.13
2022-09-11T12:26:10.988Z,4.50
2022-09-11T12:28:38.197Z,5.45
2022-09-11T12:31:07.573Z,4.68
2022-09-11T12:33:44.267Z,3.97
2022-09-11T12:36:24.477Z,4.43
2022-09-11T12:39:01.624Z,3.55
2022-09-11T12:41:36.154Z,3.95
2022-09-11T12:44:05.094Z,4.20
2022-09-11T12:46:31.967Z,4.60
2022-09-11T12:49:23.289Z,3.65
2022-09-11T12:51:55.193Z,4.00
2022-09-11T12:54:30.466Z,4.15
2022-09-11T12:57:30.793Z,4.35
2022-09-11T13:00:01.850Z,4.05
2022-09-11T13:02:36.683Z,4.45
2022-09-11T13:05:19.627Z,3.83
2022-09-11T13:07:53.579Z,4.20
2022-09-11T13:10:36.734Z,4.60
2022-09-11T13:13:34.799Z,4.65
2022-09-11T13:16:44.763Z,3.80
2022-09-11T13:19:20.790Z,4.20
2022-09-11T13:21:52.018Z,3.15
2022-09-11T13:24:30.832Z,4.30
2022-09-11T13:27:13.154Z,4.30
2022-09-11T13:29:42.866Z,3.50
2022-09-11T13:32:16.111Z,3.15
2022-09-11T13:34:45.074Z,2.47
2022-09-11T13:37:16.170Z,2.55
2022-09-11T13:39:44.024Z,3.90
2022-09-11T13:42:16.872Z,3.70
2022-09-11T13:44:49.136Z,3.78
2022-09-11T13:47:27.733Z,2.95
2022-09-11T13:50:02.030Z,3.45
2022-09-11T13:52:32.320Z,3.65
2022-09-11T13:55:04.509Z,3.53
2022-09-11T13:57:32.200Z,4.15
2022-09-11T14:00:00.969Z,3.08
2022-09-11T14:02:34.688Z,3.83
2022-09-11T14:05:27.158Z,2.55
2022-09-11T14:10:30.691Z,2.33
2022-09-11T14:13:18.061Z,3.10
2022-09-11T14:15:51.997Z,2.60
2022-09-11T14:18:33.262Z,2.28
2022-09-11T14:21:07.061Z,2.33
2022-09-11T14:23:45.836Z,2.30
2022-09-11T14:26:19.002Z,1.92
2022-09-11T14:29:21.703Z,2.00
2022-09-11T14:31:51.883Z,2.40
2022-09-11T14:34:30.396Z,1.92
2022-09-11T14:37:10.191Z,2.55
2022-09-11T14:39:41.779Z,2.13
2022-09-11T14:42:13.527Z,2.53
2022-09-11T14:44:42.194Z,1.75
2022-09-11T14:47:17.534Z,3.30
2022-09-11T14:49:45.389Z,2.40
2022-09-11T14:52:24.094Z,2.22
2022-09-11T14:54:51.021Z,1.98
2022-09-11T14:57:21.102Z,2.67
2022-09-11T14:59:51.246Z,2.13
2022-09-11T15:02:24.833Z,1.88
2022-09-11T15:04:55.198Z,3.45
2022-09-11T15:07:25.858Z,2.25
2022-09-11T15:09:54.154Z,2.28
2022-09-11T15:12:21.750Z,1.77
2022-09-11T15:14:58.418Z,1.63
2022-09-11T15:17:31.692Z,1.40
2022-09-11T15:19:59.998Z,2.58
2022-09-11T15:22:26.904Z,2.47
2022-09-11T15:24:53.863Z,1.20
2022-09-11T15:27:23.368Z,1.65
2022-09-11T15:29:50.749Z,2.00
2022-09-11T15:32:17.858Z,1.90
2022-09-11T15:34:45.336Z,1.60
2022-09-11T15:37:12.340Z,1.50
2022-09-11T15:39:39.424Z,2.65
2022-09-11T15:42:07.497Z,2.00
2022-09-11T15:44:35.985Z,1.60
2022-09-11T15:47:04.213Z,2.20
2022-09-11T15:49:31.768Z,2.22
2022-09-11T15:51:59.700Z,2.25
2022-09-11T15:54:27.556Z,1.65
2022-09-11T15:56:55.035Z,2.13
2022-09-11T15:59:22.966Z,2.25
2022-09-11T16:01:49.939Z,2.22
2022-09-11T16:04:23.238Z,2.45
2022-09-11T16:06:50.472Z,2.50
2022-09-11T16:09:30.362Z,3.03
2022-09-11T16:12:00.234Z,2.90
2022-09-11T16:14:33.216Z,2.55
2022-09-11T16:17:02.974Z,2.67
2022-09-11T16:19:30.962Z,2.97
2022-09-11T16:22:01.017Z,2.55
2022-09-11T16:24:31.125Z,2.92
2022-09-11T16:26:58.609Z,3.10
2022-09-11T16:29:43.964Z,2.83
2022-09-11T16:32:28.309Z,4.03
2022-09-11T16:34:57.246Z,2.72
2022-09-11T16:37:24.661Z,3.35
2022-09-11T16:39:51.757Z,2.22
2022-09-11T16:42:21.242Z,2.83
2022-09-11T16:44:49.748Z,2.33
2022-09-11T16:47:19.891Z,1.85
2022-09-11T16:50:10.046Z,1.67
2022-09-11T16:52:39.037Z,2.65
2022-09-11T16:55:08.097Z,1.98
2022-09-11T16:57:35.427Z,2.28
2022-09-11T17:00:04.280Z,2.05
2022-09-11T17:02:33.968Z,3.25
2022-09-11T17:05:03.639Z,1.85
2022-09-11T17:07:31.419Z,1.60
2022-09-11T17:09:58.782Z,2.90
2022-09-11T17:12:25.881Z,1.85
2022-09-11T17:14:53.068Z,2.42
2022-09-11T17:17:20.397Z,2.33
2022-09-11T17:19:47.625Z,2.15
2022-09-11T17:22:15.334Z,2.70
2022-09-11T17:24:42.590Z,2.10
2022-09-11T17:27:11.802Z,2.58
2022-09-11T17:29:43.798Z,1.88
2022-09-11T17:32:27.333Z,1.70
2022-09-11T17:34:55.307Z,2.95
2022-09-11T17:37:23.154Z,2.50
2022-09-11T17:39:50.443Z,2.67
2022-09-11T17:42:17.622Z,2.03
2022-09-11T17:44:44.664Z,1.92
2022-09-11T17:47:11.656Z,3.72
2022-09-11T17:49:38.578Z,2.20
2022-09-11T17:52:05.726Z,3.03
2022-09-11T17:54:32.730Z,2.10
2022-09-11T17:56:59.769Z,1.88
2022-09-11T17:59:26.914Z,2.65
2022-09-11T18:01:56.436Z,2.25
2022-09-11T18:04:23.602Z,2.83
2022-09-11T18:06:51.289Z,2.13
2022-09-11T18:09:19.861Z,2.28
2022-09-11T18:11:49.841Z,2.40
2022-09-11T18:14:18.576Z,3.65
2022-09-11T18:16:47.901Z,3.15
2022-09-11T18:19:16.812Z,3.85
2022-09-11T18:21:49.301Z,5.03
2022-09-11T18:24:21.377Z,3.30
2022-09-11T18:26:51.187Z,3.85
2022-09-11T18:29:20.713Z,2.95
2022-09-11T18:31:51.558Z,3.60
2022-09-11T18:34:23.059Z,3.03
2022-09-11T18:36:49.991Z,3.67
2022-09-11T18:39:18.984Z,3.17
2022-09-11T18:41:48.202Z,2.60
2022-09-11T18:44:20.088Z,2.97
2022-09-11T18:46:48.203Z,3.00
2022-09-11T18:49:16.413Z,3.15
2022-09-11T18:51:43.771Z,2.75
2022-09-11T18:54:15.901Z,2.92
2022-09-11T18:56:47.709Z,4.07
2022-09-11T18:59:16.517Z,2.03
2022-09-11T19:01:43.714Z,3.55
2022-09-11T19:04:12.568Z,5.93
2022-09-11T19:06:40.337Z,3.58
2022-09-11T19:09:10.447Z,3.67
2022-09-11T19:11:38.306Z,4.70
2022-09-11T19:14:07.811Z,2.83
2022-09-11T19:16:36.016Z,2.60
2022-09-11T19:19:03.600Z,3.45
2022-09-11T19:21:30.598Z,3.88
2022-09-11T19:24:00.622Z,4.18
2022-09-11T19:26:39.614Z,4.55
2022-09-11T19:29:08.821Z,3.20
2022-09-11T19:31:36.943Z,3.55
2022-09-11T19:34:03.917Z,3.20
2022-09-11T19:36:32.953Z,4.03
2022-09-11T19:39:00.705Z,3.80
2022-09-11T19:41:30.617Z,5.10
2022-09-11T19:44:05.755Z,4.70
2022-09-11T19:46:34.807Z,2.92
2022-09-11T19:49:05.610Z,3.55
2022-09-11T19:51:36.074Z,3.15
2022-09-11T19:54:04.071Z,2.92
2022-09-11T19:56:33.782Z,4.75
2022-09-11T19:59:01.213Z,3.92
2022-09-11T20:01:30.131Z,4.55
2022-09-11T20:03:58.180Z,3.70
2022-09-11T20:06:27.546Z,3.45
2022-09-11T20:09:13.393Z,3.45
2022-09-11T20:11:42.222Z,3.83
2022-09-11T20:14:10.034Z,4.40
2022-09-11T20:16:37.051Z,3.85
2022-09-11T20:19:06.319Z,3.50
2022-09-11T20:21:35.386Z,4.50
2022-09-11T20:24:03.149Z,5.53
2022-09-11T20:26:31.091Z,4.32
2022-09-11T20:29:02.077Z,4.45
2022-09-11T20:31:31.971Z,4.00
2022-09-11T20:34:00.761Z,4.03
2022-09-11T20:36:30.063Z,4.25
2022-09-11T20:39:00.089Z,4.10
2022-09-11T20:41:30.165Z,4.38
2022-09-11T20:44:00.384Z,4.50
2022-09-11T20:46:27.622Z,4.85
2022-09-11T20:48:54.681Z,3.83
2022-09-11T20:51:22.978Z,4.32
2022-09-11T20:53:52.687Z,4.28
2022-09-11T20:56:22.458Z,4.43
2022-09-11T20:58:49.916Z,4.55
2022-09-11T21:01:21.317Z,4.22
2022-09-11T21:03:50.954Z,4.32
2022-09-11T21:06:23.448Z,4.75
2022-09-11T21:08:55.394Z,4.25
2022-09-11T21:11:23.721Z,3.33
2022-09-11T21:13:50.877Z,6.60
2022-09-11T21:16:19.754Z,4.38
2022-09-11T21:18:52.752Z,3.97
2022-09-11T21:21:21.695Z,3.63
2022-09-11T21:23:49.260Z,3.80
2022-09-11T21:26:19.675Z,4.35
2022-09-11T21:28:46.652Z,5.60
2022-09-11T21:31:13.846Z,4.53
2022-09-11T21:33:41.024Z,4.22
2022-09-11T21:36:08.114Z,4.80
2022-09-11T21:38:36.225Z,4.50
2022-09-11T21:41:05.598Z,4.95
2022-09-11T21:43:32.670Z,4.70
2022-09-11T21:45:59.571Z,4.10
2022-09-11T21:48:26.825Z,4.13
2022-09-11T21:50:53.986Z,5.40
2022-09-11T21:53:21.468Z,5.63
2022-09-11T21:55:51.216Z,5.80
2022-09-11T21:58:20.488Z,5.20
2022-09-11T22:00:48.674Z,4.25
2022-09-11T22:03:18.662Z,5.13
2022-09-11T22:05:48.670Z,6.85
2022-09-11T22:08:17.929Z,5.45
2022-09-11T22:10:47.032Z,5.18
2022-09-11T22:13:23.816Z,4.35
2022-09-11T22:15:51.015Z,5.47
2022-09-11T22:18:21.087Z,4.13
2022-09-11T22:20:48.839Z,4.45
2022-09-11T22:23:17.995Z,5.50
2022-09-11T22:25:45.423Z,5.22
2022-09-11T22:28:12.927Z,5.05
2022-09-11T22:30:44.046Z,5.35
2022-09-11T22:33:11.199Z,5.78
2022-09-11T22:35:38.236Z,5.35
2022-09-11T22:38:05.168Z,5.13
2022-09-11T22:40:32.072Z,6.07
2022-09-11T22:42:58.926Z,5.85
2022-09-11T22:45:26.131Z,6.53
2022-09-11T22:47:53.060Z,6.05
2022-09-11T22:50:19.980Z,5.28
2022-09-11T22:52:46.988Z,5.95
2022-09-11T22:55:13.977Z,4.43
2022-09-11T22:57:40.958Z,5.35
2022-09-11T23:00:10.711Z,5.45
2022-09-11T23:02:38.127Z,4.63
2022-09-11T23:05:24.865Z,5.05
2022-09-11T23:07:52.776Z,5.43
2022-09-11T23:10:21.918Z,6.03
2022-09-11T23:12:49.343Z,7.30
2022-09-11T23:15:16.513Z,6.13
2022-09-11T23:17:44.078Z,6.55
2022-09-11T23:20:11.755Z,7.40
2022-09-11T23:22:38.651Z,4.65
2022-09-11T23:25:06.317Z,5.38
2022-09-11T23:27:33.360Z,5.50
2022-09-11T23:30:00.312Z,5.03
2022-09-11T23:32:27.151Z,6.82
2022-09-11T23:34:54.116Z,3.97
2022-09-11T23:37:21.040Z,4.65
2022-09-11T23:39:48.307Z,5.43
2022-09-11T23:42:15.245Z,5.35
2022-09-11T23:44:42.075Z,6.85
2022-09-11T23:47:09.078Z,5.07
2022-09-11T23:49:36.604Z,6.05
2022-09-11T23:52:04.607Z,5.50
2022-09-11T23:54:31.629Z,7.22
2022-09-11T23:56:59.062Z,5.38
2022-09-11T23:59:26.089Z,6.18
